createdAt,value
2019-05-01T00:02:29.279Z,15.13
2019-05-01T00:05:15.939Z,15.10
2019-05-01T00:07:45.177Z,15.05
2019-05-01T00:10:14.771Z,14.97
2019-05-01T00:12:43.854Z,14.94
2019-05-01T00:15:12.774Z,14.92
2019-05-01T00:17:41.974Z,14.89
2019-05-01T00:20:10.981Z,14.88
2019-05-01T00:22:40.274Z,14.86
2019-05-01T00:25:09.371Z,14.85
2019-05-01T00:27:38.466Z,14.83
2019-05-01T00:30:09.242Z,14.80
2019-05-01T00:32:39.874Z,14.80
2019-05-01T00:35:08.984Z,14.78
2019-05-01T00:37:38.092Z,14.74
2019-05-01T00:40:07.378Z,14.71
2019-05-01T00:42:36.446Z,14.70
2019-05-01T00:45:05.642Z,14.68
2019-05-01T00:47:34.751Z,14.66
2019-05-01T00:50:03.998Z,14.64
2019-05-01T00:52:33.115Z,14.61
2019-05-01T00:55:19.815Z,14.59
2019-05-01T00:57:56.506Z,14.56
2019-05-01T01:00:43.269Z,14.53
2019-05-01T01:03:07.979Z,14.52
2019-05-01T01:05:37.109Z,14.49
2019-05-01T01:08:06.233Z,14.49
2019-05-01T01:10:35.392Z,13.52
2019-05-01T01:13:04.500Z,14.50
2019-05-01T01:15:33.634Z,14.49
2019-05-01T01:18:02.775Z,14.48
2019-05-01T01:20:31.844Z,14.46
2019-05-01T01:23:00.958Z,14.42
2019-05-01T01:25:30.107Z,14.37
2019-05-01T01:27:59.258Z,14.36
2019-05-01T01:30:28.318Z,14.35
2019-05-01T01:32:57.401Z,14.33
2019-05-01T01:35:26.542Z,14.32
2019-05-01T01:37:55.680Z,14.31
2019-05-01T01:40:24.789Z,14.29
2019-05-01T01:42:56.141Z,14.26
2019-05-01T01:45:44.127Z,14.24
2019-05-01T01:48:14.938Z,14.22
2019-05-01T01:50:44.112Z,14.16
2019-05-01T01:53:13.693Z,14.15
2019-05-01T01:55:42.970Z,14.13
2019-05-01T01:58:12.044Z,14.10
2019-05-01T02:01:08.971Z,14.09
2019-05-01T02:03:32.459Z,14.03
2019-05-01T02:06:01.553Z,13.97
2019-05-01T02:08:30.752Z,13.95
2019-05-01T02:11:01.319Z,13.96
2019-05-01T02:13:30.522Z,13.95
2019-05-01T02:15:59.650Z,13.95
2019-05-01T02:18:28.767Z,13.94
2019-05-01T02:20:58.247Z,13.94
2019-05-01T02:23:27.361Z,13.94
2019-05-01T02:25:56.453Z,13.92
2019-05-01T02:28:53.672Z,13.91
2019-05-01T02:31:39.690Z,13.89
2019-05-01T02:34:08.844Z,13.85
2019-05-01T02:36:38.050Z,13.81
2019-05-01T02:39:08.899Z,13.80
2019-05-01T02:41:41.638Z,13.79
2019-05-01T02:44:22.518Z,13.71
2019-05-01T02:46:52.511Z,13.69
2019-05-01T02:49:34.596Z,13.64
2019-05-01T02:52:04.123Z,13.61
2019-05-01T02:54:33.565Z,13.57
2019-05-01T02:57:08.045Z,13.58
2019-05-01T02:59:37.178Z,13.57
2019-05-01T03:02:06.275Z,13.54
2019-05-01T03:04:35.458Z,13.53
2019-05-01T03:07:04.736Z,13.52
2019-05-01T03:09:34.128Z,13.52
2019-05-01T03:12:03.232Z,13.51
2019-05-01T03:14:32.357Z,13.50
2019-05-01T03:17:03.166Z,13.47
2019-05-01T03:19:54.150Z,13.46
2019-05-01T03:22:35.069Z,13.42
2019-05-01T03:25:05.274Z,13.39
2019-05-01T03:27:34.509Z,13.37
2019-05-01T03:30:04.231Z,13.34
2019-05-01T03:32:33.319Z,13.32
2019-05-01T03:35:02.454Z,13.30
2019-05-01T03:37:31.561Z,13.31
2019-05-01T03:40:00.692Z,13.28
2019-05-01T03:42:29.793Z,13.30
2019-05-01T03:44:58.947Z,13.26
2019-05-01T03:47:28.025Z,13.25
2019-05-01T03:49:57.272Z,13.24
2019-05-01T03:52:26.386Z,13.22
2019-05-01T03:54:55.527Z,13.19
2019-05-01T03:57:24.573Z,13.16
2019-05-01T03:59:53.884Z,13.16
2019-05-01T04:02:39.674Z,13.13
2019-05-01T04:05:08.735Z,13.18
2019-05-01T04:07:37.859Z,13.20
2019-05-01T04:10:07.593Z,13.26
2019-05-01T04:12:36.698Z,13.33
2019-05-01T04:15:05.905Z,13.42
2019-05-01T04:17:51.881Z,13.46
2019-05-01T04:20:20.985Z,13.55
2019-05-01T04:22:50.065Z,13.63
2019-05-01T04:25:19.176Z,13.72
2019-05-01T04:27:49.910Z,13.83
2019-05-01T04:30:40.715Z,13.87
2019-05-01T04:33:12.238Z,13.92
2019-05-01T04:35:51.407Z,13.94
2019-05-01T04:38:20.506Z,14.00
2019-05-01T04:40:49.616Z,14.00
2019-05-01T04:43:18.648Z,14.05
2019-05-01T04:45:47.727Z,14.10
2019-05-01T04:48:16.797Z,14.16
2019-05-01T04:50:45.933Z,14.20
2019-05-01T04:53:15.090Z,14.24
2019-05-01T04:55:44.236Z,14.28
2019-05-01T04:58:13.389Z,14.29
2019-05-01T05:00:42.550Z,14.26
2019-05-01T05:03:16.655Z,14.24
2019-05-01T05:05:45.855Z,14.20
2019-05-01T05:08:14.959Z,14.24
2019-05-01T05:10:44.045Z,14.29
2019-05-01T05:13:37.826Z,14.28
2019-05-01T05:16:17.536Z,14.23
2019-05-01T05:18:46.603Z,14.29
2019-05-01T05:21:15.761Z,14.28
2019-05-01T05:23:44.826Z,14.28
2019-05-01T05:26:13.973Z,14.33
2019-05-01T05:28:43.045Z,14.37
2019-05-01T05:31:12.318Z,14.38
2019-05-01T05:33:41.397Z,14.38
2019-05-01T05:36:10.510Z,14.40
2019-05-01T05:38:54.146Z,14.40
2019-05-01T05:41:23.233Z,14.38
2019-05-01T05:43:52.291Z,14.36
2019-05-01T05:46:21.352Z,14.35
2019-05-01T05:48:50.403Z,14.27
2019-05-01T05:51:29.872Z,14.27
2019-05-01T05:54:02.891Z,14.30
2019-05-01T05:56:39.157Z,14.34
2019-05-01T05:59:13.470Z,14.38
2019-05-01T06:02:04.600Z,14.47
2019-05-01T06:04:58.727Z,14.53
2019-05-01T06:07:46.800Z,14.59
2019-05-01T06:10:31.957Z,14.58
2019-05-01T06:13:12.529Z,14.67
2019-05-01T06:16:03.698Z,14.74
2019-05-01T06:18:52.102Z,14.75
2019-05-01T06:21:36.611Z,14.79
2019-05-01T06:24:14.328Z,14.84
2019-05-01T06:26:43.417Z,14.97
2019-05-01T06:29:12.531Z,15.05
2019-05-01T06:31:41.630Z,15.08
2019-05-01T06:34:10.922Z,15.14
2019-05-01T06:36:44.304Z,15.26
2019-05-01T06:39:13.279Z,15.38
2019-05-01T06:41:44.112Z,15.53
2019-05-01T06:44:43.856Z,15.64
2019-05-01T06:47:16.155Z,15.81
2019-05-01T06:50:06.034Z,15.99
2019-05-01T06:52:36.338Z,16.08
2019-05-01T06:55:05.890Z,16.15
2019-05-01T06:57:38.348Z,16.32
2019-05-01T07:00:09.437Z,16.47
2019-05-01T07:02:38.752Z,16.54
2019-05-01T07:05:09.270Z,16.62
2019-05-01T07:07:39.343Z,16.63
2019-05-01T07:10:08.503Z,16.68
2019-05-01T07:12:37.573Z,16.65
2019-05-01T07:15:06.760Z,16.64
2019-05-01T07:17:35.918Z,16.70
2019-05-01T07:20:27.276Z,16.74
2019-05-01T07:22:56.509Z,16.75
2019-05-01T07:25:25.702Z,16.75
2019-05-01T07:27:58.501Z,16.79
2019-05-01T07:30:41.599Z,16.81
2019-05-01T07:33:11.904Z,16.83
2019-05-01T07:35:41.845Z,16.89
2019-05-01T07:38:11.043Z,16.94
2019-05-01T07:40:40.229Z,17.05
2019-05-01T07:43:27.029Z,17.15
2019-05-01T07:46:13.821Z,17.29
2019-05-01T07:48:43.410Z,17.38
2019-05-01T07:51:12.552Z,17.49
2019-05-01T07:53:43.512Z,17.63
2019-05-01T07:56:12.644Z,17.70
2019-05-01T07:58:41.804Z,17.74
2019-05-01T08:01:27.495Z,17.76
2019-05-01T08:03:56.722Z,17.75
2019-05-01T08:06:25.946Z,17.74
2019-05-01T08:08:55.551Z,17.80
2019-05-01T08:11:24.819Z,17.87
2019-05-01T08:13:54.014Z,17.90
2019-05-01T08:16:23.259Z,17.93
2019-05-01T08:19:04.032Z,17.85
2019-05-01T08:22:01.730Z,17.87
2019-05-01T08:24:32.097Z,17.84
2019-05-01T08:27:01.464Z,17.85
2019-05-01T08:29:50.001Z,17.82
2019-05-01T08:32:42.427Z,17.88
2019-05-01T08:35:14.104Z,18.02
2019-05-01T08:37:45.313Z,18.20
2019-05-01T08:40:15.840Z,18.29
2019-05-01T08:42:55.236Z,18.34
2019-05-01T08:45:42.616Z,18.41
2019-05-01T08:48:25.302Z,18.55
2019-05-01T08:50:59.106Z,18.69
2019-05-01T08:53:30.555Z,18.78
2019-05-01T08:56:11.894Z,18.88
2019-05-01T08:58:44.775Z,18.93
2019-05-01T09:01:18.608Z,18.99
2019-05-01T09:03:49.725Z,19.08
2019-05-01T09:06:19.009Z,19.15
2019-05-01T09:08:48.535Z,19.26
2019-05-01T09:11:21.721Z,19.36
2019-05-01T09:13:54.626Z,19.49
2019-05-01T09:16:23.484Z,19.71
2019-05-01T09:18:53.731Z,19.84
2019-05-01T09:21:23.836Z,20.07
2019-05-01T09:23:53.499Z,20.26
2019-05-01T09:26:45.389Z,20.40
2019-05-01T09:29:17.870Z,18.05
2019-05-01T09:31:47.584Z,20.59
2019-05-01T09:34:19.130Z,20.74
2019-05-01T09:36:48.089Z,20.96
2019-05-01T09:39:17.408Z,21.16
2019-05-01T09:41:47.500Z,21.25
2019-05-01T09:44:17.556Z,21.32
2019-05-01T09:46:46.797Z,21.36
2019-05-01T09:49:18.250Z,21.44
2019-05-01T09:51:59.820Z,21.42
2019-05-01T09:54:38.143Z,21.48
2019-05-01T09:57:07.293Z,21.60
2019-05-01T09:59:36.418Z,21.67
2019-05-01T10:02:07.895Z,21.78
2019-05-01T10:04:37.262Z,21.94
2019-05-01T10:07:08.175Z,22.15
2019-05-01T10:09:37.691Z,22.30
2019-05-01T10:12:11.667Z,22.52
2019-05-01T10:14:38.007Z,22.66
2019-05-01T10:17:07.162Z,21.42
2019-05-01T10:19:36.493Z,22.93
2019-05-01T10:22:16.649Z,23.03
2019-05-01T10:24:45.854Z,23.10
2019-05-01T10:27:18.187Z,22.34
2019-05-01T10:43:17.808Z,28.33
2019-05-01T10:45:46.994Z,29.69
2019-05-01T10:48:16.128Z,30.93
2019-05-01T10:50:45.340Z,31.86
2019-05-01T10:53:14.578Z,32.45
2019-05-01T10:55:48.053Z,32.71
2019-05-01T10:58:18.281Z,33.06
2019-05-01T11:00:52.142Z,32.53
2019-05-01T11:03:21.374Z,32.35
2019-05-01T11:06:13.937Z,33.38
2019-05-01T11:08:43.351Z,34.61
2019-05-01T11:11:14.148Z,35.97
2019-05-01T11:13:43.367Z,36.00
2019-05-01T11:16:12.582Z,35.57
2019-05-01T11:18:41.865Z,35.80
2019-05-01T11:21:11.078Z,36.06
2019-05-01T11:23:40.574Z,36.40
2019-05-01T11:26:09.728Z,36.56
2019-05-01T11:28:38.866Z,36.94
2019-05-01T11:31:09.619Z,37.10
2019-05-01T11:33:56.369Z,37.18
2019-05-01T11:36:52.044Z,37.11
2019-05-01T11:39:46.409Z,36.67
2019-05-01T11:42:15.685Z,35.79
2019-05-01T11:44:44.879Z,34.91
2019-05-01T11:47:14.097Z,34.07
2019-05-01T11:49:43.278Z,33.26
2019-05-01T11:52:12.547Z,32.53
2019-05-01T11:54:41.873Z,31.90
2019-05-01T11:57:10.973Z,31.29
2019-05-01T11:59:40.282Z,30.85
2019-05-01T12:02:09.361Z,30.48
2019-05-01T12:04:38.465Z,30.12
2019-05-01T12:07:07.694Z,29.85
2019-05-01T12:09:36.929Z,29.54
2019-05-01T12:12:26.385Z,29.23
2019-05-01T12:14:56.364Z,28.94
2019-05-01T12:17:32.092Z,28.67
2019-05-01T12:20:01.645Z,28.41
2019-05-01T12:22:32.341Z,28.12
2019-05-01T12:25:01.558Z,27.80
2019-05-01T12:27:30.785Z,27.61
2019-05-01T12:29:59.879Z,27.36
2019-05-01T12:32:29.007Z,27.07
2019-05-01T12:34:58.178Z,26.82
2019-05-01T12:37:55.102Z,26.62
2019-05-01T12:40:23.338Z,26.54
2019-05-01T12:42:52.420Z,26.41
2019-05-01T12:45:22.110Z,26.32
2019-05-01T12:47:59.671Z,26.32
2019-05-01T12:50:28.901Z,26.24
2019-05-01T12:53:19.756Z,26.15
2019-05-01T12:56:13.634Z,26.08
2019-05-01T12:58:42.960Z,25.99
2019-05-01T13:01:12.079Z,25.87
2019-05-01T13:03:41.153Z,25.81
2019-05-01T13:06:10.394Z,25.74
2019-05-01T13:08:39.506Z,25.70
2019-05-01T13:11:08.771Z,25.22
2019-05-01T13:13:37.814Z,25.62
2019-05-01T13:16:08.897Z,25.54
2019-05-01T13:18:38.354Z,25.50
2019-05-01T13:21:09.676Z,25.46
2019-05-01T13:23:39.141Z,25.49
2019-05-01T13:26:18.998Z,25.49
2019-05-01T13:29:02.185Z,25.47
2019-05-01T13:31:46.529Z,25.40
2019-05-01T13:34:15.907Z,25.33
2019-05-01T13:36:45.189Z,25.14
2019-05-01T13:39:22.509Z,25.12
2019-05-01T13:41:51.753Z,25.09
2019-05-01T13:44:20.939Z,25.08
2019-05-01T13:46:50.069Z,25.03
2019-05-01T13:49:19.309Z,25.01
2019-05-01T13:51:48.532Z,24.93
2019-05-01T13:54:17.735Z,24.87
2019-05-01T13:56:46.904Z,24.84
2019-05-01T13:59:16.320Z,24.80
2019-05-01T14:01:45.566Z,24.75
2019-05-01T14:04:16.064Z,24.71
2019-05-01T14:06:45.223Z,24.66
2019-05-01T14:09:22.756Z,24.61
2019-05-01T14:11:51.918Z,24.50
2019-05-01T14:14:21.039Z,24.45
2019-05-01T14:16:50.065Z,24.38
2019-05-01T14:19:19.202Z,24.33
2019-05-01T14:22:19.141Z,24.29
2019-05-01T14:24:52.021Z,24.22
2019-05-01T14:27:21.401Z,24.10
2019-05-01T14:29:50.463Z,24.05
2019-05-01T14:32:19.503Z,24.04
2019-05-01T14:34:48.615Z,23.94
2019-05-01T14:37:29.062Z,23.92
2019-05-01T14:39:48.518Z,23.88
2019-05-01T14:42:17.666Z,23.85
2019-05-01T14:44:46.801Z,23.84
2019-05-01T14:47:15.926Z,23.80
2019-05-01T14:49:44.989Z,23.77
2019-05-01T14:52:14.066Z,23.77
2019-05-01T14:54:43.213Z,23.70
2019-05-01T14:57:12.322Z,23.68
2019-05-01T14:59:41.408Z,23.58
2019-05-01T15:02:10.500Z,23.48
2019-05-01T15:04:39.597Z,23.41
2019-05-01T15:07:11.166Z,23.39
2019-05-01T15:09:39.564Z,23.32
2019-05-01T15:12:09.951Z,23.29
2019-05-01T15:15:01.235Z,23.26
2019-05-01T15:17:42.405Z,23.25
2019-05-01T15:20:13.062Z,23.28
2019-05-01T15:22:42.157Z,23.24
2019-05-01T15:25:11.253Z,23.18
2019-05-01T15:27:40.359Z,23.17
2019-05-01T15:30:09.558Z,23.12
2019-05-01T15:32:38.711Z,23.07
2019-05-01T15:35:07.836Z,22.99
2019-05-01T15:37:37.012Z,22.91
2019-05-01T15:40:23.800Z,22.87
2019-05-01T15:43:03.474Z,22.79
2019-05-01T15:45:32.635Z,22.75
2019-05-01T15:48:01.843Z,22.69
2019-05-01T15:50:30.972Z,22.64
2019-05-01T15:53:00.068Z,22.56
2019-05-01T15:55:29.187Z,22.53
2019-05-01T15:57:58.238Z,22.52
2019-05-01T16:00:27.453Z,22.50
2019-05-01T16:02:56.571Z,22.46
2019-05-01T16:05:25.668Z,22.42
2019-05-01T16:07:54.719Z,22.41
2019-05-01T16:10:28.232Z,22.38
2019-05-01T16:13:01.492Z,22.33
2019-05-01T16:15:37.944Z,22.29
2019-05-01T16:18:06.978Z,22.23
2019-05-01T16:20:36.040Z,22.20
2019-05-01T16:23:05.061Z,22.18
2019-05-01T16:25:34.253Z,22.16
2019-05-01T16:28:03.333Z,22.12
2019-05-01T16:30:32.466Z,22.08
2019-05-01T16:33:01.504Z,22.01
2019-05-01T16:35:30.563Z,21.96
2019-05-01T16:38:01.783Z,21.90
2019-05-01T16:40:41.154Z,21.85
2019-05-01T16:43:11.710Z,21.82
2019-05-01T16:45:40.951Z,21.80
2019-05-01T16:48:10.034Z,21.76
2019-05-01T16:50:39.400Z,21.72
2019-05-01T16:53:08.538Z,21.70
2019-05-01T16:55:37.630Z,21.63
2019-05-01T16:58:08.778Z,21.58
2019-05-01T17:00:58.434Z,21.52
2019-05-01T17:03:52.272Z,21.46
2019-05-01T17:06:37.478Z,21.37
2019-05-01T17:09:33.068Z,21.29
2019-05-01T17:12:02.163Z,21.20
2019-05-01T17:14:31.639Z,21.10
2019-05-01T17:17:00.705Z,21.05
2019-05-01T17:19:30.096Z,21.00
2019-05-01T17:21:59.241Z,20.94
2019-05-01T17:24:28.390Z,20.88
2019-05-01T17:26:57.453Z,20.82
2019-05-01T17:29:26.517Z,20.75
2019-05-01T17:31:55.636Z,20.66
2019-05-01T17:34:25.557Z,20.61
2019-05-01T17:36:55.560Z,20.52
2019-05-01T17:39:24.824Z,20.46
2019-05-01T17:41:57.621Z,20.37
2019-05-01T17:44:26.406Z,20.30
2019-05-01T17:46:55.783Z,20.22
2019-05-01T17:49:24.986Z,20.16
2019-05-01T17:51:54.171Z,20.09
2019-05-01T17:54:23.327Z,20.04
2019-05-01T17:56:55.567Z,19.98
2019-05-01T17:59:25.726Z,19.88
2019-05-01T18:02:13.799Z,19.80
2019-05-01T18:05:05.121Z,19.76
2019-05-01T18:07:35.032Z,19.69
2019-05-01T18:10:05.008Z,19.61
2019-05-01T18:12:34.593Z,19.53
2019-05-01T18:15:04.004Z,19.47
2019-05-01T18:17:33.203Z,19.40
2019-05-01T18:20:02.351Z,19.32
2019-05-01T18:22:53.212Z,19.25
2019-05-01T18:25:33.058Z,19.17
2019-05-01T18:28:24.907Z,19.09
2019-05-01T18:30:56.522Z,19.00
2019-05-01T18:33:27.192Z,18.92
2019-05-01T18:35:56.638Z,18.84
2019-05-01T18:38:42.992Z,18.78
2019-05-01T18:41:21.712Z,18.70
2019-05-01T18:43:50.867Z,18.61
2019-05-01T18:46:20.051Z,18.54
2019-05-01T18:48:49.185Z,18.48
2019-05-01T18:51:18.366Z,18.42
2019-05-01T18:53:47.579Z,18.35
2019-05-01T18:56:16.733Z,18.29
2019-05-01T18:58:46.068Z,18.20
2019-05-01T19:01:15.436Z,18.13
2019-05-01T19:03:44.622Z,18.08
2019-05-01T19:06:13.869Z,18.01
2019-05-01T19:08:43.041Z,17.94
2019-05-01T19:11:13.313Z,17.88
2019-05-01T19:13:42.764Z,17.81
2019-05-01T19:16:11.906Z,17.76
2019-05-01T19:18:41.081Z,17.73
2019-05-01T19:21:11.293Z,17.67
2019-05-01T19:23:40.450Z,17.59
2019-05-01T19:26:10.756Z,17.53
2019-05-01T19:28:40.042Z,17.48
2019-05-01T19:31:09.177Z,17.41
2019-05-01T19:33:38.379Z,17.37
2019-05-01T19:36:08.763Z,17.31
2019-05-01T19:38:38.576Z,17.28
2019-05-01T19:41:09.624Z,17.22
2019-05-01T19:43:40.382Z,17.15
2019-05-01T19:46:09.924Z,17.10
2019-05-01T19:48:39.099Z,17.06
2019-05-01T19:51:08.249Z,17.02
2019-05-01T19:53:37.458Z,16.96
2019-05-01T19:56:06.616Z,16.91
2019-05-01T19:58:35.797Z,16.86
2019-05-01T20:01:05.127Z,16.81
2019-05-01T20:03:36.109Z,16.77
2019-05-01T20:06:08.248Z,16.72
2019-05-01T20:08:37.821Z,16.65
2019-05-01T20:11:09.589Z,16.60
2019-05-01T20:13:38.082Z,16.54
2019-05-01T20:16:09.848Z,16.49
2019-05-01T20:18:39.093Z,16.45
2019-05-01T20:21:08.249Z,16.40
2019-05-01T20:23:39.685Z,16.36
2019-05-01T20:26:08.841Z,16.30
2019-05-01T20:28:38.081Z,16.27
2019-05-01T20:31:07.191Z,16.20
2019-05-01T20:33:39.103Z,16.17
2019-05-01T20:36:07.401Z,16.15
2019-05-01T20:38:36.521Z,16.13
2019-05-01T20:41:10.373Z,16.10
2019-05-01T20:43:38.252Z,16.08
2019-05-01T20:46:07.391Z,16.06
2019-05-01T20:48:36.536Z,16.02
2019-05-01T20:51:05.645Z,15.99
2019-05-01T20:53:34.870Z,15.95
2019-05-01T20:56:13.733Z,15.93
2019-05-01T20:58:42.853Z,15.89
2019-05-01T21:01:14.063Z,15.87
2019-05-01T21:03:48.096Z,15.84
2019-05-01T21:06:23.367Z,15.82
2019-05-01T21:09:02.832Z,15.80
2019-05-01T21:11:35.335Z,15.75
2019-05-01T21:14:18.029Z,15.71
2019-05-01T21:16:37.814Z,15.69
2019-05-01T21:19:06.071Z,15.64
2019-05-01T21:21:35.184Z,15.62
2019-05-01T21:24:04.470Z,15.57
2019-05-01T21:26:33.669Z,15.54
2019-05-01T21:29:04.094Z,15.51
2019-05-01T21:31:34.089Z,15.48
2019-05-01T21:34:04.196Z,15.45
2019-05-01T21:36:33.462Z,15.43
2019-05-01T21:39:02.609Z,15.40
2019-05-01T21:41:32.857Z,15.37
2019-05-01T21:44:03.441Z,15.35
2019-05-01T21:46:34.062Z,15.32
2019-05-01T21:49:03.168Z,15.28
2019-05-01T21:51:32.825Z,15.28
2019-05-01T21:54:03.276Z,15.25
2019-05-01T21:56:32.476Z,15.23
2019-05-01T21:59:06.831Z,15.20
2019-05-01T22:01:34.791Z,15.16
2019-05-01T22:04:03.323Z,15.13
2019-05-01T22:06:32.423Z,15.10
2019-05-01T22:09:01.541Z,15.08
2019-05-01T22:11:33.063Z,15.04
2019-05-01T22:14:03.004Z,15.03
2019-05-01T22:16:32.216Z,15.00
2019-05-01T22:19:12.947Z,14.96
2019-05-01T22:21:59.650Z,14.95
2019-05-01T22:24:45.609Z,14.90
2019-05-01T22:27:20.829Z,14.87
2019-05-01T22:30:10.270Z,14.84
2019-05-01T22:32:40.418Z,14.80
2019-05-01T22:35:16.778Z,14.79
2019-05-01T22:37:45.941Z,14.76
2019-05-01T22:40:16.738Z,14.75
2019-05-01T22:42:45.838Z,14.72
2019-05-01T22:45:20.518Z,14.69
2019-05-01T22:47:50.758Z,14.68
2019-05-01T22:50:20.481Z,14.68
2019-05-01T22:52:49.611Z,14.65
2019-05-01T22:55:20.457Z,14.63
2019-05-01T22:57:49.590Z,14.61
2019-05-01T23:00:31.334Z,14.58
2019-05-01T23:03:05.606Z,14.56
2019-05-01T23:05:33.743Z,14.56
2019-05-01T23:08:03.469Z,14.53
2019-05-01T23:10:34.413Z,14.52
2019-05-01T23:13:04.350Z,14.48
2019-05-01T23:15:35.374Z,14.46
2019-05-01T23:18:04.918Z,14.43
2019-05-01T23:20:34.686Z,14.39
2019-05-01T23:23:05.542Z,14.37
2019-05-01T23:25:36.567Z,14.35
2019-05-01T23:28:06.179Z,14.30
2019-05-01T23:30:35.631Z,14.31
2019-05-01T23:33:05.005Z,14.28
2019-05-01T23:35:34.330Z,14.25
2019-05-01T23:38:03.801Z,14.23
2019-05-01T23:40:33.253Z,14.22
2019-05-01T23:43:02.408Z,14.19
2019-05-01T23:45:31.758Z,14.17
2019-05-01T23:48:01.082Z,14.13
2019-05-01T23:50:30.381Z,14.10
2019-05-01T23:52:59.865Z,14.09
2019-05-01T23:55:28.982Z,14.06
2019-05-01T23:57:58.113Z,14.06
